createdAt,value
2022-09-15T00:02:32.819Z,12.80
2022-09-15T00:07:36.746Z,12.85
2022-09-15T00:12:40.109Z,12.87
2022-09-15T00:17:50.693Z,12.79
2022-09-15T00:22:54.049Z,12.70
2022-09-15T00:27:58.119Z,12.79
2022-09-15T00:33:03.126Z,12.79
2022-09-15T00:38:07.647Z,12.79
2022-09-15T00:43:12.419Z,12.74
2022-09-15T00:48:21.178Z,12.86
2022-09-15T00:53:26.305Z,12.87
2022-09-15T00:58:37.442Z,12.70
2022-09-15T01:03:42.304Z,12.73
2022-09-15T01:08:50.116Z,12.73
2022-09-15T01:13:53.562Z,12.51
2022-09-15T01:19:15.689Z,12.70
2022-09-15T01:24:42.730Z,12.55
2022-09-15T01:30:07.741Z,12.48
2022-09-15T01:35:22.763Z,12.59
2022-09-15T01:40:30.541Z,12.65
2022-09-15T01:45:37.825Z,12.67
2022-09-15T01:50:46.533Z,12.61
2022-09-15T01:55:56.030Z,12.67
2022-09-15T02:01:08.060Z,12.77
2022-09-15T02:06:17.017Z,12.77
2022-09-15T02:11:28.253Z,12.76
2022-09-15T02:16:37.292Z,12.83
2022-09-15T02:21:54.128Z,12.68
2022-09-15T02:26:59.817Z,12.69
2022-09-15T02:32:07.554Z,12.76
2022-09-15T02:37:13.613Z,12.61
2022-09-15T02:42:24.698Z,12.76
2022-09-15T02:47:30.676Z,12.77
2022-09-15T02:52:34.096Z,12.71
2022-09-15T02:57:38.350Z,12.80
2022-09-15T03:02:45.577Z,12.86
2022-09-15T03:07:49.343Z,12.88
2022-09-15T03:12:54.365Z,12.84
2022-09-15T03:17:59.852Z,12.88
2022-09-15T03:23:03.478Z,12.84
2022-09-15T03:28:07.538Z,12.82
2022-09-15T03:33:12.224Z,12.89
2022-09-15T03:38:16.280Z,12.91
2022-09-15T03:43:19.995Z,12.80
2022-09-15T03:48:26.142Z,12.88
2022-09-15T03:53:29.763Z,12.77
2022-09-15T03:58:33.761Z,12.77
2022-09-15T04:03:44.101Z,12.84
2022-09-15T04:08:50.003Z,12.86
2022-09-15T04:13:54.191Z,12.93
2022-09-15T04:18:59.762Z,12.94
2022-09-15T04:24:04.827Z,13.01
2022-09-15T04:29:15.026Z,13.03
2022-09-15T04:34:19.881Z,13.02
2022-09-15T04:39:23.945Z,13.01
2022-09-15T04:44:27.282Z,13.09
2022-09-15T04:49:32.801Z,13.23
2022-09-15T04:54:36.285Z,13.38
2022-09-15T04:59:40.620Z,13.48
2022-09-15T05:04:45.820Z,13.50
2022-09-15T05:09:49.955Z,13.50
2022-09-15T05:14:53.309Z,13.47
2022-09-15T05:19:58.904Z,13.48
2022-09-15T05:25:02.255Z,13.53
2022-09-15T05:30:36.034Z,13.52
2022-09-15T05:35:35.128Z,13.59
2022-09-15T05:40:39.214Z,13.59
2022-09-15T05:45:43.589Z,13.64
2022-09-15T05:50:52.900Z,13.79
2022-09-15T05:55:58.209Z,13.83
2022-09-15T06:01:07.832Z,13.90
2022-09-15T06:06:14.170Z,13.93
2022-09-15T06:11:19.924Z,13.86
2022-09-15T06:16:25.454Z,13.84
2022-09-15T06:21:33.277Z,13.72
2022-09-15T06:26:38.091Z,13.85
2022-09-15T06:31:42.509Z,13.92
2022-09-15T06:36:48.079Z,13.94
2022-09-15T06:42:02.152Z,13.90
2022-09-15T06:47:08.081Z,13.96
2022-09-15T06:52:13.591Z,14.08
2022-09-15T06:57:17.657Z,13.97
2022-09-15T07:02:21.052Z,13.99
2022-09-15T07:07:26.220Z,14.01
2022-09-15T07:12:29.621Z,14.04
2022-09-15T07:17:33.991Z,14.19
2022-09-15T07:22:38.734Z,14.27
2022-09-15T07:27:42.935Z,14.19
2022-09-15T07:32:46.328Z,14.22
2022-09-15T07:37:52.755Z,14.19
2022-09-15T07:42:56.121Z,14.11
2022-09-15T07:48:00.271Z,14.10
2022-09-15T07:53:04.984Z,14.18
2022-09-15T07:58:09.115Z,14.19
2022-09-15T08:03:12.605Z,14.23
2022-09-15T08:08:17.315Z,14.37
2022-09-15T08:13:20.388Z,14.60
2022-09-15T08:18:24.505Z,14.75
2022-09-15T08:23:29.368Z,15.20
2022-09-15T08:28:33.527Z,15.45
2022-09-15T08:33:38.957Z,15.61
2022-09-15T08:38:47.848Z,15.61
2022-09-15T08:43:56.144Z,15.47
2022-09-15T08:49:07.265Z,15.35
2022-09-15T08:54:19.953Z,15.40
2022-09-15T08:59:24.258Z,15.18
2022-09-15T09:05:08.528Z,15.14
2022-09-15T09:10:19.411Z,15.06
2022-09-15T09:15:34.166Z,15.15
2022-09-15T09:20:42.871Z,15.19
2022-09-15T09:25:49.932Z,15.13
2022-09-15T09:30:55.004Z,15.18
2022-09-15T09:36:03.583Z,15.15
2022-09-15T09:41:14.489Z,15.16
2022-09-15T09:46:21.123Z,15.12
2022-09-15T09:51:34.372Z,15.11
2022-09-15T09:56:41.184Z,15.29
2022-09-15T10:02:18.628Z,15.64
2022-09-15T10:07:24.785Z,15.96
2022-09-15T10:12:33.309Z,16.29
2022-09-15T10:17:44.444Z,16.65
2022-09-15T10:22:48.039Z,16.82
2022-09-15T10:28:13.170Z,17.07
2022-09-15T10:33:23.875Z,17.12
2022-09-15T10:38:34.928Z,16.81
2022-09-15T10:43:48.172Z,16.41
2022-09-15T10:49:06.826Z,15.59
2022-09-15T10:54:34.308Z,15.72
2022-09-15T10:59:48.128Z,15.89
2022-09-15T11:05:20.527Z,15.91
2022-09-15T11:10:36.289Z,15.69
2022-09-15T11:15:55.555Z,15.60
2022-09-15T11:21:25.177Z,15.47
2022-09-15T11:26:35.950Z,15.50
2022-09-15T11:31:44.698Z,15.38
2022-09-15T11:36:54.159Z,15.48
2022-09-15T11:42:05.536Z,15.74
2022-09-15T11:47:21.779Z,15.76
2022-09-15T11:52:45.982Z,15.78
2022-09-15T11:57:56.471Z,15.76
2022-09-15T12:03:17.641Z,15.85
2022-09-15T12:08:26.196Z,16.03
2022-09-15T12:13:31.408Z,15.71
2022-09-15T12:18:46.015Z,15.81
2022-09-15T12:23:57.996Z,15.59
2022-09-15T12:29:03.242Z,15.72
2022-09-15T12:34:37.278Z,16.06
2022-09-15T12:39:44.538Z,16.25
2022-09-15T12:44:52.350Z,16.11
2022-09-15T12:50:01.914Z,16.32
2022-09-15T12:55:07.622Z,16.64
2022-09-15T13:00:49.966Z,16.83
2022-09-15T13:06:22.423Z,16.34
2022-09-15T13:11:39.067Z,16.29
2022-09-15T13:16:52.602Z,16.37
2022-09-15T13:22:05.752Z,16.47
2022-09-15T13:27:10.888Z,16.44
2022-09-15T13:32:26.836Z,16.43
2022-09-15T13:38:16.912Z,16.27
2022-09-15T13:43:45.488Z,16.09
2022-09-15T13:49:09.179Z,15.99
2022-09-15T13:54:19.226Z,15.94
2022-09-15T13:59:27.883Z,15.82
2022-09-15T14:04:32.750Z,15.87
2022-09-15T14:09:48.427Z,15.98
2022-09-15T14:14:55.706Z,15.99
2022-09-15T14:20:01.644Z,15.94
2022-09-15T14:25:16.729Z,16.04
2022-09-15T14:30:24.620Z,15.98
2022-09-15T14:35:32.226Z,16.01
2022-09-15T14:40:40.127Z,15.71
2022-09-15T14:45:57.360Z,15.47
2022-09-15T14:51:11.062Z,15.14
2022-09-15T14:56:21.522Z,15.08
2022-09-15T15:01:33.774Z,14.85
2022-09-15T15:06:43.473Z,14.76
2022-09-15T15:11:52.549Z,14.71
2022-09-15T15:17:01.087Z,14.38
2022-09-15T15:22:18.445Z,14.14
2022-09-15T15:27:44.607Z,13.84
2022-09-15T15:32:48.399Z,13.63
2022-09-15T15:38:03.599Z,13.47
2022-09-15T15:43:19.732Z,13.30
2022-09-15T15:48:24.044Z,13.02
2022-09-15T15:53:28.294Z,12.82
2022-09-15T15:58:33.878Z,12.64
2022-09-15T16:03:37.473Z,12.42
2022-09-15T16:08:44.162Z,12.18
2022-09-15T16:13:49.320Z,12.10
2022-09-15T16:18:53.726Z,11.95
2022-09-15T16:23:57.281Z,11.81
2022-09-15T16:29:03.081Z,11.72
2022-09-15T16:34:07.262Z,11.60
2022-09-15T16:39:11.508Z,11.51
2022-09-15T16:44:20.776Z,11.36
2022-09-15T16:49:25.039Z,11.25
2022-09-15T16:54:28.711Z,11.17
2022-09-15T16:59:37.329Z,11.07
2022-09-15T17:04:40.691Z,10.91
2022-09-15T17:09:45.160Z,10.73
2022-09-15T17:14:50.146Z,10.63
2022-09-15T17:19:54.268Z,10.43
2022-09-15T17:24:57.713Z,10.37
2022-09-15T17:30:03.438Z,10.35
2022-09-15T17:35:16.707Z,10.25
2022-09-15T17:40:22.445Z,10.21
2022-09-15T17:45:31.687Z,10.28
2022-09-15T17:50:38.879Z,10.23
2022-09-15T17:55:43.933Z,10.18
2022-09-15T18:00:50.952Z,10.20
2022-09-15T18:05:56.380Z,10.11
2022-09-15T18:11:01.662Z,10.13
2022-09-15T18:16:10.161Z,10.09
2022-09-15T18:21:27.691Z,10.04
2022-09-15T18:26:32.267Z,9.91
2022-09-15T18:31:37.924Z,9.81
2022-09-15T18:36:42.066Z,9.72
2022-09-15T18:41:46.377Z,9.64
2022-09-15T18:46:52.115Z,9.61
2022-09-15T18:51:55.556Z,9.53
2022-09-15T18:56:59.853Z,9.43
2022-09-15T19:02:06.080Z,9.41
2022-09-15T19:07:09.895Z,9.30
2022-09-15T19:12:14.080Z,9.24
2022-09-15T19:17:19.742Z,9.19
2022-09-15T19:22:23.173Z,9.18
2022-09-15T19:27:27.511Z,9.10
2022-09-15T19:32:34.331Z,9.07
2022-09-15T19:37:40.134Z,8.96
2022-09-15T19:42:45.114Z,8.84
2022-09-15T19:47:50.689Z,8.93
2022-09-15T19:52:58.829Z,8.86
2022-09-15T19:58:03.974Z,8.80
2022-09-15T20:03:08.743Z,8.74
2022-09-15T20:08:12.146Z,8.62
2022-09-15T20:13:16.889Z,8.65
2022-09-15T20:18:22.352Z,8.58
2022-09-15T20:23:25.718Z,8.53
2022-09-15T20:28:30.372Z,8.59
2022-09-15T20:33:36.566Z,8.52
2022-09-15T20:38:41.646Z,8.38
2022-09-15T20:43:45.561Z,8.55
2022-09-15T20:48:52.657Z,8.63
2022-09-15T20:53:57.520Z,8.69
2022-09-15T20:59:02.313Z,8.70
2022-09-15T21:04:08.137Z,8.72
2022-09-15T21:09:11.526Z,8.67
2022-09-15T21:14:15.060Z,8.62
2022-09-15T21:19:20.542Z,8.57
2022-09-15T21:24:24.043Z,8.50
2022-09-15T21:29:28.595Z,8.40
2022-09-15T21:34:33.370Z,8.32
2022-09-15T21:39:37.555Z,8.18
2022-09-15T21:44:40.866Z,8.09
2022-09-15T21:49:46.372Z,8.05
2022-09-15T21:54:49.696Z,8.04
2022-09-15T21:59:53.882Z,7.97
2022-09-15T22:04:59.786Z,7.94
2022-09-15T22:10:03.840Z,7.83
2022-09-15T22:15:08.319Z,7.79
2022-09-15T22:20:13.847Z,7.78
2022-09-15T22:25:21.679Z,7.75
2022-09-15T22:30:26.470Z,7.69
2022-09-15T22:35:32.287Z,7.68
2022-09-15T22:40:36.403Z,7.64
2022-09-15T22:45:40.613Z,7.56
2022-09-15T22:50:47.299Z,7.54
2022-09-15T22:55:52.449Z,7.54
2022-09-15T23:00:56.604Z,7.51
2022-09-15T23:06:02.867Z,7.52
2022-09-15T23:11:08.960Z,7.48
2022-09-15T23:16:13.929Z,7.41
2022-09-15T23:21:19.591Z,7.42
2022-09-15T23:26:25.439Z,7.39
2022-09-15T23:31:30.040Z,7.34
2022-09-15T23:36:35.837Z,7.35
2022-09-15T23:41:40.144Z,7.31
2022-09-15T23:46:44.245Z,7.24
2022-09-15T23:51:50.676Z,7.17
2022-09-15T23:56:55.269Z,7.09
